createdAt,value
2023-05-14T00:00:26.440Z,1004.66
2023-05-14T00:01:26.612Z,1004.59
2023-05-14T00:02:27.807Z,1004.60
2023-05-14T00:03:27.240Z,1004.59
2023-05-14T00:04:27.621Z,1004.61
2023-05-14T00:05:30.230Z,1004.56
2023-05-14T00:06:29.848Z,1004.54
2023-05-14T00:07:29.489Z,1004.55
2023-05-14T00:08:28.224Z,1004.54
2023-05-14T00:09:30.055Z,1004.50
2023-05-14T00:10:29.708Z,1004.54
2023-05-14T00:11:30.825Z,1004.59
2023-05-14T00:12:29.052Z,1004.55
2023-05-14T00:13:30.212Z,1004.55
2023-05-14T00:14:30.412Z,1004.55
2023-05-14T00:15:32.954Z,1004.56
2023-05-14T00:16:31.593Z,1004.54
2023-05-14T00:17:30.351Z,1004.55
2023-05-14T00:18:30.510Z,1004.52
2023-05-14T00:19:30.745Z,1004.57
2023-05-14T00:21:26.376Z,1004.55
2023-05-14T00:22:25.548Z,1004.53
2023-05-14T00:23:25.634Z,1004.49
2023-05-14T00:24:25.962Z,1004.49
2023-05-14T00:25:26.248Z,1004.49
2023-05-14T00:26:26.534Z,1004.45
2023-05-14T00:27:28.738Z,1004.45
2023-05-14T00:28:26.982Z,1004.44
2023-05-14T00:29:28.335Z,1004.44
2023-05-14T00:30:27.461Z,1004.45
2023-05-14T00:31:27.834Z,1004.44
2023-05-14T00:32:29.025Z,1004.45
2023-05-14T00:33:29.189Z,1004.44
2023-05-14T00:34:29.350Z,1004.39
2023-05-14T00:35:32.310Z,1004.32
2023-05-14T00:36:30.394Z,1004.33
2023-05-14T00:37:30.549Z,1004.34
2023-05-14T00:38:29.150Z,1004.38
2023-05-14T00:39:30.327Z,1004.36
2023-05-14T00:40:29.484Z,1004.37
2023-05-14T00:41:32.318Z,1004.41
2023-05-14T00:42:30.042Z,1004.36
2023-05-14T00:43:31.193Z,1004.34
2023-05-14T00:44:32.318Z,1004.34
2023-05-14T00:45:30.516Z,1004.32
2023-05-14T00:46:30.750Z,1004.34
2023-05-14T00:47:30.996Z,1004.35
2023-05-14T00:48:31.235Z,1004.29
2023-05-14T00:49:31.348Z,1004.33
2023-05-14T00:50:31.572Z,1004.34
2023-05-14T00:51:31.848Z,1004.32
2023-05-14T00:52:32.022Z,1004.31
2023-05-14T00:53:32.295Z,1004.36
2023-05-14T00:54:33.594Z,1004.33
2023-05-14T00:55:32.788Z,1004.34
2023-05-14T00:56:33.052Z,1004.29
2023-05-14T00:57:33.806Z,1004.33
2023-05-14T00:58:35.396Z,1004.32
2023-05-14T00:59:34.985Z,1004.31
2023-05-14T01:00:34.275Z,1004.30
2023-05-14T01:01:34.805Z,1004.34
2023-05-14T01:02:35.012Z,1004.28
2023-05-14T01:03:34.835Z,1004.32
2023-05-14T01:04:37.087Z,1004.33
2023-05-14T01:05:37.294Z,1004.36
2023-05-14T01:06:36.484Z,1004.33
2023-05-14T01:07:35.646Z,1004.35
2023-05-14T01:08:37.838Z,1004.40
2023-05-14T01:09:37.016Z,1004.35
2023-05-14T01:10:36.173Z,1004.29
2023-05-14T01:11:36.318Z,1004.32
2023-05-14T01:12:36.512Z,1004.32
2023-05-14T01:13:36.660Z,1004.33
2023-05-14T01:14:36.760Z,1004.32
2023-05-14T01:15:36.915Z,1004.32
2023-05-14T01:16:37.311Z,1004.35
2023-05-14T01:17:37.164Z,1004.36
2023-05-14T01:18:37.380Z,1004.37
2023-05-14T01:19:37.615Z,1004.33
2023-05-14T01:20:37.783Z,1004.37
2023-05-14T01:21:38.015Z,1004.36
2023-05-14T01:22:38.229Z,1004.34
2023-05-14T01:23:38.371Z,1004.42
2023-05-14T01:24:40.546Z,1004.35
2023-05-14T01:25:38.852Z,1004.35
2023-05-14T01:26:39.029Z,1004.30
2023-05-14T01:27:39.192Z,1004.32
2023-05-14T01:28:39.354Z,1004.27
2023-05-14T01:29:40.438Z,1004.27
2023-05-14T01:30:39.614Z,1004.27
2023-05-14T01:31:41.881Z,1004.28
2023-05-14T01:32:40.283Z,1004.28
2023-05-14T01:33:41.546Z,1004.26
2023-05-14T01:34:42.735Z,1004.25
2023-05-14T01:35:42.890Z,1004.24
2023-05-14T01:36:43.008Z,1004.24
2023-05-14T01:37:41.175Z,1004.24
2023-05-14T01:38:43.033Z,1004.21
2023-05-14T01:39:41.778Z,1004.25
2023-05-14T01:40:41.942Z,1004.19
2023-05-14T01:41:44.164Z,1004.21
2023-05-14T01:42:43.604Z,1004.24
2023-05-14T01:43:42.747Z,1004.24
2023-05-14T01:44:43.955Z,1004.29
2023-05-14T01:45:45.093Z,1004.30
2023-05-14T01:46:43.290Z,1004.31
2023-05-14T01:47:43.750Z,1004.21
2023-05-14T01:48:43.929Z,1004.24
2023-05-14T01:49:46.183Z,1004.24
2023-05-14T01:50:44.571Z,1004.20
2023-05-14T01:51:44.731Z,1004.23
2023-05-14T01:52:45.021Z,1004.24
2023-05-14T01:53:45.309Z,1004.22
2023-05-14T01:54:47.618Z,1004.17
2023-05-14T01:55:45.755Z,1004.19
2023-05-14T01:56:46.058Z,1004.14
2023-05-14T01:57:46.179Z,1004.16
2023-05-14T01:58:46.473Z,1004.12
2023-05-14T01:59:46.649Z,1004.14
2023-05-14T02:00:48.759Z,1004.15
2023-05-14T02:01:47.110Z,1004.11
2023-05-14T02:02:47.417Z,1004.08
2023-05-14T02:03:50.541Z,1004.08
2023-05-14T02:04:50.266Z,1004.17
2023-05-14T02:05:50.380Z,1004.11
2023-05-14T02:06:49.086Z,1004.12
2023-05-14T02:07:48.314Z,1004.13
2023-05-14T02:08:48.915Z,1004.11
2023-05-14T02:09:50.777Z,1004.05
2023-05-14T02:10:48.942Z,1004.07
2023-05-14T02:11:49.098Z,1004.09
2023-05-14T02:12:49.896Z,1004.09
2023-05-14T02:13:50.057Z,1004.09
2023-05-14T02:14:52.700Z,1004.11
2023-05-14T02:15:50.015Z,1004.05
2023-05-14T02:16:50.220Z,1004.07
2023-05-14T02:17:50.388Z,1004.04
2023-05-14T02:18:50.619Z,1004.04
2023-05-14T02:19:50.824Z,1004.09
2023-05-14T02:20:50.952Z,1004.05
2023-05-14T02:21:51.144Z,1004.12
2023-05-14T02:22:51.491Z,1003.98
2023-05-14T02:23:51.597Z,1004.01
2023-05-14T02:24:52.745Z,1004.03
2023-05-14T02:25:54.064Z,1003.92
2023-05-14T02:26:52.295Z,1003.97
2023-05-14T02:27:54.391Z,1003.99
2023-05-14T02:28:55.082Z,1004.00
2023-05-14T02:29:52.687Z,1004.05
2023-05-14T02:30:53.408Z,1004.11
2023-05-14T02:31:53.157Z,1004.03
2023-05-14T02:32:53.427Z,1004.05
2023-05-14T02:33:53.786Z,1004.02
2023-05-14T02:34:54.971Z,1004.06
2023-05-14T02:35:54.250Z,1004.06
2023-05-14T02:36:54.614Z,1004.04
2023-05-14T02:37:56.774Z,1004.06
2023-05-14T02:38:54.969Z,1004.04
2023-05-14T02:39:55.154Z,1004.07
2023-05-14T02:40:55.366Z,1004.05
2023-05-14T02:41:56.476Z,1004.03
2023-05-14T02:42:55.619Z,1004.06
2023-05-14T02:43:57.090Z,1004.05
2023-05-14T02:44:59.383Z,1004.13
2023-05-14T02:45:57.569Z,1004.08
2023-05-14T02:46:56.746Z,1004.06
2023-05-14T02:47:56.991Z,1004.10
2023-05-14T02:48:57.129Z,1004.08
2023-05-14T02:49:58.273Z,1004.03
2023-05-14T02:50:57.463Z,1003.99
2023-05-14T02:52:00.121Z,1004.03
2023-05-14T02:52:57.837Z,1004.05
2023-05-14T02:53:57.993Z,1004.06
2023-05-14T02:54:59.578Z,1004.08
2023-05-14T02:55:58.309Z,1004.05
2023-05-14T02:56:58.466Z,1004.08
2023-05-14T02:57:58.719Z,1004.00
2023-05-14T02:59:01.114Z,1004.04
2023-05-14T02:59:59.337Z,1003.99
2023-05-14T03:01:01.662Z,1003.99
2023-05-14T03:02:00.522Z,1004.03
2023-05-14T03:03:00.575Z,1003.99
2023-05-14T03:03:59.732Z,1004.01
2023-05-14T03:05:14.800Z,1004.04
2023-05-14T03:06:00.080Z,1004.03
2023-05-14T03:07:01.317Z,1004.03
2023-05-14T03:08:00.458Z,1004.01
2023-05-14T03:09:00.588Z,1004.04
2023-05-14T03:10:00.708Z,1004.05
2023-05-14T03:11:01.092Z,1004.06
2023-05-14T03:12:02.212Z,1004.06
2023-05-14T03:13:01.371Z,1004.06
2023-05-14T03:14:01.526Z,1004.06
2023-05-14T03:15:03.538Z,1004.05
2023-05-14T03:16:01.656Z,1004.02
2023-05-14T03:17:01.881Z,1004.05
2023-05-14T03:18:02.284Z,1004.06
2023-05-14T03:19:02.529Z,1004.04
2023-05-14T03:20:03.055Z,1004.05
2023-05-14T03:21:02.730Z,1004.07
2023-05-14T03:22:03.857Z,1004.07
2023-05-14T03:23:04.352Z,1004.02
2023-05-14T03:24:03.466Z,1004.04
2023-05-14T03:25:11.739Z,1004.01
2023-05-14T03:26:05.019Z,1004.06
2023-05-14T03:27:04.678Z,1004.05
2023-05-14T03:28:04.649Z,1004.05
2023-05-14T03:29:04.063Z,1004.05
2023-05-14T03:30:04.332Z,1004.03
2023-05-14T03:31:04.929Z,1003.99
2023-05-14T03:32:04.964Z,1004.02
2023-05-14T03:33:04.972Z,1003.96
2023-05-14T03:34:06.110Z,1003.99
2023-05-14T03:35:27.036Z,1003.94
2023-05-14T03:36:06.705Z,1003.95
2023-05-14T03:37:06.893Z,1003.96
2023-05-14T03:38:06.468Z,1003.94
2023-05-14T03:39:06.595Z,1003.96
2023-05-14T03:40:06.006Z,1003.95
2023-05-14T03:41:07.064Z,1003.92
2023-05-14T03:42:06.610Z,1003.91
2023-05-14T03:43:07.338Z,1003.90
2023-05-14T03:44:06.950Z,1003.90
2023-05-14T03:45:07.593Z,1003.89
2023-05-14T03:46:07.206Z,1003.87
2023-05-14T03:47:07.749Z,1003.91
2023-05-14T03:48:07.887Z,1003.90
2023-05-14T03:49:08.576Z,1003.86
2023-05-14T03:50:08.192Z,1003.88
2023-05-14T03:51:08.308Z,1003.86
2023-05-14T03:52:08.530Z,1003.85
2023-05-14T03:53:08.647Z,1003.86
2023-05-14T03:54:08.390Z,1003.84
2023-05-14T03:55:08.582Z,1003.85
2023-05-14T03:56:09.268Z,1003.86
2023-05-14T03:57:09.510Z,1003.84
2023-05-14T03:58:09.163Z,1003.91
2023-05-14T03:59:08.652Z,1003.87
2023-05-14T04:00:08.507Z,1003.88
2023-05-14T04:01:08.761Z,1003.89
2023-05-14T04:02:08.866Z,1003.93
2023-05-14T04:03:11.103Z,1003.89
2023-05-14T04:04:10.491Z,1003.93
2023-05-14T04:06:09.973Z,1003.83
2023-05-14T04:07:11.696Z,1003.91
2023-05-14T04:08:10.398Z,1003.92
2023-05-14T04:09:12.503Z,1003.96
2023-05-14T04:10:10.958Z,1003.94
2023-05-14T04:11:11.121Z,1003.96
2023-05-14T04:12:11.311Z,1003.97
2023-05-14T04:13:11.464Z,1003.91
2023-05-14T04:14:14.162Z,1003.93
2023-05-14T04:15:14.763Z,1003.92
2023-05-14T04:16:12.115Z,1003.92
2023-05-14T04:17:12.272Z,1003.95
2023-05-14T04:18:12.540Z,1003.94
2023-05-14T04:19:15.072Z,1004.00
2023-05-14T04:20:12.859Z,1003.97
2023-05-14T04:21:13.067Z,1003.96
2023-05-14T04:22:15.066Z,1003.94
2023-05-14T04:23:15.222Z,1003.99
2023-05-14T04:24:13.863Z,1003.95
2023-05-14T04:25:16.845Z,1003.92
2023-05-14T04:26:15.108Z,1003.85
2023-05-14T04:27:14.290Z,1003.86
2023-05-14T04:28:16.594Z,1003.87
2023-05-14T04:29:16.364Z,1003.84
2023-05-14T04:30:17.019Z,1003.85
2023-05-14T04:31:15.272Z,1003.85
2023-05-14T04:32:18.530Z,1003.87
2023-05-14T04:33:15.674Z,1003.84
2023-05-14T04:34:17.959Z,1003.89
2023-05-14T04:35:22.672Z,1003.78
2023-05-14T04:36:16.315Z,1003.86
2023-05-14T04:37:18.448Z,1003.89
2023-05-14T04:38:16.704Z,1003.87
2023-05-14T04:39:18.857Z,1003.82
2023-05-14T04:40:17.212Z,1003.80
2023-05-14T04:41:17.480Z,1003.84
2023-05-14T04:42:17.607Z,1003.82
2023-05-14T04:43:17.930Z,1003.81
2023-05-14T04:44:23.030Z,1003.86
2023-05-14T04:45:21.738Z,1003.82
2023-05-14T04:46:20.178Z,1003.82
2023-05-14T04:47:18.412Z,1003.85
2023-05-14T04:48:18.544Z,1003.86
2023-05-14T04:49:19.678Z,1003.80
2023-05-14T04:50:20.338Z,1003.79
2023-05-14T04:51:19.009Z,1003.82
2023-05-14T04:52:21.217Z,1003.84
2023-05-14T04:53:19.344Z,1003.87
2023-05-14T04:54:19.645Z,1003.82
2023-05-14T04:55:20.945Z,1003.77
2023-05-14T04:56:21.631Z,1003.82
2023-05-14T04:57:20.322Z,1003.82
2023-05-14T04:58:22.455Z,1003.77
2023-05-14T04:59:23.618Z,1003.76
2023-05-14T05:00:20.798Z,1003.77
2023-05-14T05:01:22.042Z,1003.72
2023-05-14T05:02:21.322Z,1003.77
2023-05-14T05:03:21.703Z,1003.79
2023-05-14T05:04:23.952Z,1003.76
2023-05-14T05:05:22.343Z,1003.76
2023-05-14T05:06:23.569Z,1003.71
2023-05-14T05:07:22.721Z,1003.72
2023-05-14T05:08:23.059Z,1003.71
2023-05-14T05:09:24.154Z,1003.75
2023-05-14T05:10:24.104Z,1003.77
2023-05-14T05:11:23.524Z,1003.74
2023-05-14T05:12:23.683Z,1003.75
2023-05-14T05:13:24.890Z,1003.73
2023-05-14T05:14:25.957Z,1003.76
2023-05-14T05:15:25.961Z,1003.75
2023-05-14T05:16:24.320Z,1003.74
2023-05-14T05:17:24.658Z,1003.75
2023-05-14T05:18:25.252Z,1003.72
2023-05-14T05:19:39.526Z,1003.70
2023-05-14T05:20:25.127Z,1003.71
2023-05-14T05:21:25.425Z,1003.71
2023-05-14T05:22:26.594Z,1003.69
2023-05-14T05:23:26.773Z,1003.67
2023-05-14T05:24:26.862Z,1003.71
2023-05-14T05:25:26.000Z,1003.67
2023-05-14T05:26:27.205Z,1003.69
2023-05-14T05:27:26.362Z,1003.69
2023-05-14T05:28:26.776Z,1003.67
2023-05-14T05:29:26.500Z,1003.73
2023-05-14T05:30:26.904Z,1003.74
2023-05-14T05:31:27.071Z,1003.79
2023-05-14T05:32:29.301Z,1003.71
2023-05-14T05:33:28.391Z,1003.71
2023-05-14T05:34:28.560Z,1003.76
2023-05-14T05:35:29.627Z,1003.79
2023-05-14T05:36:29.709Z,1003.76
2023-05-14T05:37:27.921Z,1003.79
2023-05-14T05:38:29.166Z,1003.82
2023-05-14T05:39:30.251Z,1003.74
2023-05-14T05:40:30.354Z,1003.78
2023-05-14T05:41:28.611Z,1003.77
2023-05-14T05:42:28.980Z,1003.76
2023-05-14T05:43:31.060Z,1003.76
2023-05-14T05:44:29.916Z,1003.78
2023-05-14T05:45:30.507Z,1003.80
2023-05-14T05:46:31.699Z,1003.78
2023-05-14T05:47:29.981Z,1003.83
2023-05-14T05:48:30.183Z,1003.88
2023-05-14T05:49:31.305Z,1003.82
2023-05-14T05:50:30.402Z,1003.82
2023-05-14T05:51:30.550Z,1003.84
2023-05-14T05:52:32.730Z,1003.84
2023-05-14T05:53:31.116Z,1003.79
2023-05-14T05:54:31.225Z,1003.75
2023-05-14T05:55:32.338Z,1003.79
2023-05-14T05:56:31.517Z,1003.76
2023-05-14T05:57:33.657Z,1003.75
2023-05-14T05:58:31.860Z,1003.78
2023-05-14T05:59:32.980Z,1003.79
2023-05-14T06:00:33.167Z,1003.80
2023-05-14T06:01:32.305Z,1003.78
2023-05-14T06:02:32.486Z,1003.86
2023-05-14T06:03:32.748Z,1003.75
2023-05-14T06:04:36.114Z,1003.71
2023-05-14T06:05:35.281Z,1003.79
2023-05-14T06:06:35.514Z,1003.80
2023-05-14T06:07:33.664Z,1003.78
2023-05-14T06:08:33.755Z,1003.79
2023-05-14T06:09:34.072Z,1003.78
2023-05-14T06:10:34.447Z,1003.82
2023-05-14T06:11:34.709Z,1003.80
2023-05-14T06:12:37.346Z,1003.81
2023-05-14T06:13:35.951Z,1003.83
2023-05-14T06:14:37.153Z,1003.87
2023-05-14T06:15:37.246Z,1003.87
2023-05-14T06:16:35.417Z,1003.86
2023-05-14T06:17:38.660Z,1003.86
2023-05-14T06:18:35.856Z,1003.86
2023-05-14T06:19:37.349Z,1003.78
2023-05-14T06:20:36.104Z,1003.80
2023-05-14T06:21:36.239Z,1003.82
2023-05-14T06:22:38.395Z,1003.73
2023-05-14T06:23:38.521Z,1003.79
2023-05-14T06:24:41.564Z,1003.83
2023-05-14T06:25:39.100Z,1003.82
2023-05-14T06:26:38.340Z,1003.79
2023-05-14T06:27:36.909Z,1003.81
2023-05-14T06:28:37.030Z,1003.86
2023-05-14T06:29:39.191Z,1003.86
2023-05-14T06:30:37.320Z,1003.87
2023-05-14T06:31:37.566Z,1003.82
2023-05-14T06:32:38.882Z,1003.80
2023-05-14T06:33:38.462Z,1003.80
2023-05-14T06:34:40.236Z,1003.83
2023-05-14T06:35:38.354Z,1003.80
2023-05-14T06:36:38.526Z,1003.85
2023-05-14T06:37:40.054Z,1003.83
2023-05-14T06:38:39.410Z,1003.89
2023-05-14T06:39:39.591Z,1003.87
2023-05-14T06:40:40.234Z,1003.78
2023-05-14T06:41:41.837Z,1003.76
2023-05-14T06:42:42.072Z,1003.85
2023-05-14T06:43:40.302Z,1003.75
2023-05-14T06:44:40.412Z,1003.81
2023-05-14T06:45:40.573Z,1003.78
2023-05-14T06:46:40.901Z,1003.83
2023-05-14T06:47:41.466Z,1003.85
2023-05-14T06:48:41.264Z,1003.78
2023-05-14T06:49:43.456Z,1003.77
2023-05-14T06:50:43.564Z,1003.84
2023-05-14T06:51:44.350Z,1003.89
2023-05-14T06:52:43.409Z,1003.77
2023-05-14T06:53:44.014Z,1003.76
2023-05-14T06:54:44.638Z,1003.72
2023-05-14T06:55:45.046Z,1003.72
2023-05-14T06:56:43.732Z,1003.75
2023-05-14T06:57:42.858Z,1003.75
2023-05-14T06:58:44.002Z,1003.69
2023-05-14T06:59:43.382Z,1003.69
2023-05-14T07:00:43.640Z,1003.69
2023-05-14T07:01:43.748Z,1003.67
2023-05-14T07:02:43.933Z,1003.71
2023-05-14T07:03:44.142Z,1003.68
2023-05-14T07:04:47.375Z,1003.71
2023-05-14T07:05:45.508Z,1003.70
2023-05-14T07:06:45.538Z,1003.71
2023-05-14T07:07:44.696Z,1003.67
2023-05-14T07:08:44.892Z,1003.67
2023-05-14T07:09:45.057Z,1003.71
2023-05-14T07:10:45.154Z,1003.69
2023-05-14T07:11:45.252Z,1003.72
2023-05-14T07:12:46.388Z,1003.69
2023-05-14T07:13:46.621Z,1003.72
2023-05-14T07:14:45.760Z,1003.69
2023-05-14T07:15:47.919Z,1003.64
2023-05-14T07:16:46.143Z,1003.67
2023-05-14T07:17:46.428Z,1003.67
2023-05-14T07:18:47.075Z,1003.63
2023-05-14T07:19:47.005Z,1003.70
2023-05-14T07:20:47.087Z,1003.65
2023-05-14T07:21:49.227Z,1003.65
2023-05-14T07:22:49.287Z,1003.67
2023-05-14T07:23:50.052Z,1003.63
2023-05-14T07:24:48.612Z,1003.58
2023-05-14T07:25:47.702Z,1003.56
2023-05-14T07:26:49.844Z,1003.55
2023-05-14T07:27:48.079Z,1003.52
2023-05-14T07:28:50.162Z,1003.57
2023-05-14T07:29:48.294Z,1003.57
2023-05-14T07:30:53.471Z,1003.56
2023-05-14T07:31:49.692Z,1003.58
2023-05-14T07:32:48.934Z,1003.58
2023-05-14T07:33:49.147Z,1003.53
2023-05-14T07:34:51.486Z,1003.49
2023-05-14T07:35:51.625Z,1003.49
2023-05-14T07:36:51.683Z,1003.45
2023-05-14T07:37:49.819Z,1003.45
2023-05-14T07:38:49.899Z,1003.42
2023-05-14T07:39:50.085Z,1003.44
2023-05-14T07:40:50.145Z,1003.41
2023-05-14T07:41:50.373Z,1003.39
2023-05-14T07:42:52.523Z,1003.37
2023-05-14T07:43:53.698Z,1003.45
2023-05-14T07:44:50.816Z,1003.40
2023-05-14T07:45:50.964Z,1003.31
2023-05-14T07:46:51.118Z,1003.37
2023-05-14T07:47:51.418Z,1003.35
2023-05-14T07:48:51.603Z,1003.41
2023-05-14T07:49:51.708Z,1003.41
2023-05-14T07:50:51.915Z,1003.38
2023-05-14T07:51:52.182Z,1003.39
2023-05-14T07:52:52.349Z,1003.34
2023-05-14T07:53:55.438Z,1003.41
2023-05-14T07:54:53.818Z,1003.35
2023-05-14T07:55:53.120Z,1003.40
2023-05-14T07:56:53.264Z,1003.36
2023-05-14T07:57:53.512Z,1003.33
2023-05-14T07:58:53.604Z,1003.34
2023-05-14T07:59:54.048Z,1003.30
2023-05-14T08:00:56.162Z,1003.33
2023-05-14T08:01:55.778Z,1003.33
2023-05-14T08:02:55.270Z,1003.32
2023-05-14T08:03:54.680Z,1003.30
2023-05-14T08:04:56.916Z,1003.27
2023-05-14T08:05:57.160Z,1003.25
2023-05-14T08:06:55.229Z,1003.23
2023-05-14T08:07:55.330Z,1003.24
2023-05-14T08:08:55.543Z,1003.24
2023-05-14T08:09:55.746Z,1003.22
2023-05-14T08:10:55.990Z,1003.21
2023-05-14T08:11:56.484Z,1003.24
2023-05-14T08:12:56.765Z,1003.22
2023-05-14T08:13:56.906Z,1003.26
2023-05-14T08:14:58.647Z,1003.27
2023-05-14T08:15:57.278Z,1003.33
2023-05-14T08:16:57.431Z,1003.27
2023-05-14T08:17:58.672Z,1003.28
2023-05-14T08:18:57.857Z,1003.29
2023-05-14T08:19:58.064Z,1003.28
2023-05-14T08:20:58.135Z,1003.22
2023-05-14T08:22:00.233Z,1003.29
2023-05-14T08:22:58.344Z,1003.28
2023-05-14T08:23:59.982Z,1003.28
2023-05-14T08:25:00.553Z,1003.29
2023-05-14T08:25:59.581Z,1003.29
2023-05-14T08:26:58.741Z,1003.30
2023-05-14T08:27:58.931Z,1003.31
2023-05-14T08:28:59.971Z,1003.26
2023-05-14T08:29:59.090Z,1003.24
2023-05-14T08:30:59.186Z,1003.30
2023-05-14T08:32:08.415Z,1003.26
2023-05-14T08:33:01.527Z,1003.23
2023-05-14T08:34:02.138Z,1003.24
2023-05-14T08:35:12.055Z,1003.20
2023-05-14T08:36:01.970Z,1003.21
2023-05-14T08:37:02.550Z,1003.28
2023-05-14T08:38:00.655Z,1003.22
2023-05-14T08:39:01.354Z,1003.23
2023-05-14T08:40:01.929Z,1003.25
2023-05-14T08:41:01.084Z,1003.17
2023-05-14T08:42:01.255Z,1003.19
2023-05-14T08:43:01.477Z,1003.19
2023-05-14T08:44:02.521Z,1003.19
2023-05-14T08:45:05.081Z,1003.18
2023-05-14T08:46:05.436Z,1003.16
2023-05-14T08:47:02.117Z,1003.15
2023-05-14T08:48:02.315Z,1003.11
2023-05-14T08:49:02.574Z,1003.12
2023-05-14T08:50:04.210Z,1003.08
2023-05-14T08:51:02.810Z,1003.05
2023-05-14T08:52:03.904Z,1003.06
2023-05-14T08:53:03.025Z,1003.01
2023-05-14T08:54:04.680Z,1003.04
2023-05-14T08:55:05.309Z,1003.01
2023-05-14T08:56:04.329Z,1003.02
2023-05-14T08:57:03.536Z,1003.00
2023-05-14T08:58:03.744Z,1002.97
2023-05-14T08:59:05.276Z,1002.98
2023-05-14T09:00:05.764Z,1002.91
2023-05-14T09:01:04.099Z,1002.89
2023-05-14T09:02:04.456Z,1002.90
2023-05-14T09:03:04.524Z,1002.87
2023-05-14T09:04:06.842Z,1002.90
2023-05-14T09:06:06.692Z,1002.87
2023-05-14T09:07:07.934Z,1002.90
2023-05-14T09:08:05.025Z,1002.88
2023-05-14T09:09:06.598Z,1002.95
2023-05-14T09:10:05.151Z,1002.91
2023-05-14T09:11:06.921Z,1002.89
2023-05-14T09:12:05.521Z,1002.86
2023-05-14T09:13:08.218Z,1002.88
2023-05-14T09:14:05.874Z,1002.86
2023-05-14T09:15:06.239Z,1002.88
2023-05-14T09:16:06.332Z,1002.86
2023-05-14T09:17:06.422Z,1002.82
2023-05-14T09:18:06.637Z,1002.80
2023-05-14T09:19:06.909Z,1002.78
2023-05-14T09:20:07.133Z,1002.79
2023-05-14T09:21:07.205Z,1002.72
2023-05-14T09:22:08.346Z,1002.78
2023-05-14T09:23:07.423Z,1002.73
2023-05-14T09:24:09.782Z,1002.78
2023-05-14T09:25:07.866Z,1002.73
2023-05-14T09:26:08.001Z,1002.72
2023-05-14T09:27:08.083Z,1002.72
2023-05-14T09:28:08.219Z,1002.73
2023-05-14T09:29:08.360Z,1002.68
2023-05-14T09:30:08.796Z,1002.71
2023-05-14T09:31:08.586Z,1002.71
2023-05-14T09:32:09.281Z,1002.71
2023-05-14T09:33:09.008Z,1002.71
2023-05-14T09:34:10.111Z,1002.77
2023-05-14T09:36:11.482Z,1002.72
2023-05-14T09:37:11.554Z,1002.75
2023-05-14T09:38:09.756Z,1002.72
2023-05-14T09:39:10.832Z,1002.69
2023-05-14T09:40:09.908Z,1002.67
2023-05-14T09:41:10.239Z,1002.64
2023-05-14T09:42:14.202Z,1002.66
2023-05-14T09:43:10.279Z,1002.63
2023-05-14T09:44:12.851Z,1002.61
2023-05-14T09:45:10.580Z,1002.61
2023-05-14T09:46:10.662Z,1002.60
2023-05-14T09:47:10.748Z,1002.59
2023-05-14T09:48:12.110Z,1002.61
2023-05-14T09:49:11.315Z,1002.60
2023-05-14T09:50:11.455Z,1002.59
2023-05-14T09:51:11.776Z,1002.61
2023-05-14T09:52:12.828Z,1002.60
2023-05-14T09:53:11.995Z,1002.61
2023-05-14T09:54:13.054Z,1002.56
2023-05-14T09:55:13.112Z,1002.51
2023-05-14T09:56:12.161Z,1002.54
2023-05-14T09:57:15.889Z,1002.56
2023-05-14T09:58:13.413Z,1002.52
2023-05-14T09:59:12.483Z,1002.49
2023-05-14T10:00:12.573Z,1002.51
2023-05-14T10:01:12.939Z,1002.53
2023-05-14T10:02:13.031Z,1002.47
2023-05-14T10:03:13.164Z,1002.42
2023-05-14T10:04:15.749Z,1002.44
2023-05-14T10:05:21.532Z,1002.40
2023-05-14T10:06:14.312Z,1002.40
2023-05-14T10:07:15.611Z,1002.44
2023-05-14T10:08:13.735Z,1002.38
2023-05-14T10:09:14.697Z,1002.39
2023-05-14T10:10:13.819Z,1002.41
2023-05-14T10:11:13.895Z,1002.35
2023-05-14T10:12:14.035Z,1002.39
2023-05-14T10:13:14.179Z,1002.35
2023-05-14T10:14:16.801Z,1002.37
2023-05-14T10:15:17.355Z,1002.33
2023-05-14T10:16:15.171Z,1002.31
2023-05-14T10:17:14.890Z,1002.30
2023-05-14T10:18:16.206Z,1002.32
2023-05-14T10:19:15.386Z,1002.26
2023-05-14T10:20:15.494Z,1002.30
2023-05-14T10:21:18.188Z,1002.22
2023-05-14T10:22:15.863Z,1002.25
2023-05-14T10:23:15.908Z,1002.25
2023-05-14T10:24:15.937Z,1002.22
2023-05-14T10:25:15.996Z,1002.16
2023-05-14T10:26:16.188Z,1002.18
2023-05-14T10:27:18.206Z,1002.14
2023-05-14T10:28:16.291Z,1002.13
2023-05-14T10:29:17.996Z,1002.17
2023-05-14T10:30:16.548Z,1002.15
2023-05-14T10:31:18.619Z,1002.16
2023-05-14T10:32:16.690Z,1002.14
2023-05-14T10:33:17.803Z,1002.10
2023-05-14T10:34:18.832Z,1002.09
2023-05-14T10:35:23.129Z,1002.13
2023-05-14T10:36:18.713Z,1002.09
2023-05-14T10:37:19.377Z,1002.06
2023-05-14T10:38:17.288Z,1002.05
2023-05-14T10:39:17.495Z,1002.06
2023-05-14T10:40:18.163Z,1002.00
2023-05-14T10:41:17.778Z,1002.03
2023-05-14T10:42:19.760Z,1002.01
2023-05-14T10:43:18.976Z,1001.97
2023-05-14T10:44:20.523Z,1001.94
2023-05-14T10:45:18.675Z,1002.00
2023-05-14T10:46:18.799Z,1001.93
2023-05-14T10:47:19.003Z,1001.94
2023-05-14T10:48:20.165Z,1001.94
2023-05-14T10:49:28.891Z,1001.91
2023-05-14T10:50:20.424Z,1001.88
2023-05-14T10:51:19.623Z,1001.94
2023-05-14T10:52:19.887Z,1001.92
2023-05-14T10:53:20.088Z,1001.92
2023-05-14T10:54:20.256Z,1001.96
2023-05-14T10:55:22.977Z,1001.96
2023-05-14T10:56:20.873Z,1001.94
2023-05-14T10:57:23.624Z,1001.92
2023-05-14T10:58:21.793Z,1001.92
2023-05-14T10:59:21.357Z,1001.90
2023-05-14T11:00:21.513Z,1001.90
2023-05-14T11:01:24.330Z,1001.87
2023-05-14T11:02:22.113Z,1001.89
2023-05-14T11:03:24.221Z,1001.85
2023-05-14T11:04:25.899Z,1001.81
2023-05-14T11:05:23.597Z,1001.84
2023-05-14T11:06:22.772Z,1001.80
2023-05-14T11:07:23.887Z,1001.77
2023-05-14T11:08:25.955Z,1001.79
2023-05-14T11:09:23.268Z,1001.80
2023-05-14T11:10:23.708Z,1001.82
2023-05-14T11:11:23.644Z,1001.82
2023-05-14T11:12:23.896Z,1001.78
2023-05-14T11:13:25.564Z,1001.76
2023-05-14T11:14:24.124Z,1001.78
2023-05-14T11:15:26.177Z,1001.77
2023-05-14T11:16:24.351Z,1001.75
2023-05-14T11:17:25.579Z,1001.74
2023-05-14T11:18:26.754Z,1001.74
2023-05-14T11:19:25.021Z,1001.70
2023-05-14T11:20:25.349Z,1001.72
2023-05-14T11:21:28.018Z,1001.72
2023-05-14T11:22:25.719Z,1001.68
2023-05-14T11:23:25.778Z,1001.62
2023-05-14T11:24:25.983Z,1001.64
2023-05-14T11:25:26.243Z,1001.58
2023-05-14T11:26:30.515Z,1001.58
2023-05-14T11:27:28.649Z,1001.56
2023-05-14T11:28:26.755Z,1001.57
2023-05-14T11:29:39.243Z,1001.53
2023-05-14T11:30:28.824Z,1001.51
2023-05-14T11:31:26.986Z,1001.53
2023-05-14T11:32:27.329Z,1001.55
2023-05-14T11:33:27.474Z,1001.53
2023-05-14T11:34:29.552Z,1001.50
2023-05-14T11:35:28.865Z,1001.41
2023-05-14T11:36:28.709Z,1001.42
2023-05-14T11:37:29.911Z,1001.42
2023-05-14T11:38:27.955Z,1001.41
2023-05-14T11:39:28.096Z,1001.40
2023-05-14T11:40:30.172Z,1001.40
2023-05-14T11:41:28.392Z,1001.36
2023-05-14T11:42:28.551Z,1001.41
2023-05-14T11:43:30.588Z,1001.43
2023-05-14T11:44:28.782Z,1001.45
2023-05-14T11:45:31.328Z,1001.44
2023-05-14T11:46:28.993Z,1001.41
2023-05-14T11:47:29.194Z,1001.35
2023-05-14T11:48:29.240Z,1001.38
2023-05-14T11:49:30.357Z,1001.40
2023-05-14T11:50:29.605Z,1001.36
2023-05-14T11:51:29.758Z,1001.32
2023-05-14T11:52:32.481Z,1001.30
2023-05-14T11:53:32.091Z,1001.36
2023-05-14T11:54:30.834Z,1001.29
2023-05-14T11:55:30.482Z,1001.27
2023-05-14T11:56:31.864Z,1001.31
2023-05-14T11:57:31.821Z,1001.25
2023-05-14T11:58:32.400Z,1001.26
2023-05-14T11:59:31.044Z,1001.30
2023-05-14T12:00:31.210Z,1001.29
2023-05-14T12:01:32.342Z,1001.32
2023-05-14T12:02:31.587Z,1001.33
2023-05-14T12:03:34.915Z,1001.25
2023-05-14T12:04:31.885Z,1001.27
2023-05-14T12:05:33.080Z,1001.32
2023-05-14T12:06:32.788Z,1001.28
2023-05-14T12:07:33.079Z,1001.29
2023-05-14T12:08:32.634Z,1001.35
2023-05-14T12:09:32.744Z,1001.33
2023-05-14T12:10:33.993Z,1001.36
2023-05-14T12:11:33.063Z,1001.32